Time;durP1;ratioP1;P1;durP2;ratioP2;P2;SDS_P1;SDS_P2;PMS_P1;PMS_P2;Temp;Humidity;BMP_temperature;BMP_pressure;BME280_temperature;BME280_humidity;BME280_pressure;Samples;Min_cycle;Max_cycle;Signal;HPM_P1;HPM_P2
2021/12/24 00:00:17;;;;;;;18.83;9.07;;;9.80;95.00;;;;;;4956252;28;20073;-64
2021/12/24 00:02:43;;;;;;;19.63;9.27;;;9.70;95.10;;;;;;4956390;28;20608;-64
2021/12/24 00:05:10;;;;;;;18.90;8.55;;;9.70;95.30;;;;;;4952752;28;20046;-64
2021/12/24 00:07:36;;;;;;;15.90;8.48;;;9.70;95.10;;;;;;4956709;28;20031;-65
2021/12/24 00:10:04;;;;;;;19.23;9.00;;;9.70;95.30;;;;;;4956603;28;20043;-65
2021/12/24 00:12:33;;;;;;;16.25;9.10;;;9.70;95.10;;;;;;4956247;28;20114;-65
2021/12/24 00:15:03;;;;;;;19.05;9.05;;;9.80;95.40;;;;;;4956201;28;20027;-64
2021/12/24 00:17:33;;;;;;;19.50;8.93;;;9.70;95.30;;;;;;4955708;28;20084;-65
2021/12/24 00:20:22;;;;;;;16.50;8.65;;;9.80;95.20;;;;;;4952220;28;20089;-65
2021/12/24 00:36:10;;;;;;;15.18;8.70;;;9.70;95.30;;;;;;4956793;28;20499;-65
2021/12/24 00:38:35;;;;;;;17.17;9.18;;;9.70;95.30;;;;;;4956746;28;20105;-65
2021/12/24 00:41:01;;;;;;;18.88;9.88;;;9.70;95.40;;;;;;4952571;28;20036;-65
2021/12/24 00:43:27;;;;;;;15.88;9.07;;;9.80;95.50;;;;;;4958164;28;20019;-64
2021/12/24 00:45:53;;;;;;;17.58;9.75;;;9.70;95.30;;;;;;4955801;28;20035;-64
2021/12/24 00:48:20;;;;;;;16.55;9.23;;;9.70;95.30;;;;;;4955686;28;20472;-64
2021/12/24 00:55:59;;;;;;;15.45;8.88;;;9.70;95.50;;;;;;4951681;28;20081;-64
2021/12/24 00:58:25;;;;;;;17.67;9.35;;;9.70;95.70;;;;;;4957338;28;20020;-64
2021/12/24 01:00:51;;;;;;;19.67;10.18;;;9.70;95.60;;;;;;4954381;28;20114;-64
2021/12/24 01:03:17;;;;;;;17.65;9.00;;;9.70;95.70;;;;;;4955112;28;20553;-65
2021/12/24 01:05:43;;;;;;;18.85;9.95;;;9.70;95.50;;;;;;4955399;28;20113;-64
2021/12/24 01:08:10;;;;;;;17.83;8.88;;;9.70;95.50;;;;;;4951976;28;20023;-65
2021/12/24 01:10:46;;;;;;;16.60;9.02;;;9.70;95.60;;;;;;4955393;28;20082;-64
2021/12/24 01:13:12;;;;;;;15.38;8.57;;;9.70;95.70;;;;;;4956957;28;20062;-65
2021/12/24 01:15:50;;;;;;;17.38;9.05;;;9.70;95.50;;;;;;4955245;28;20031;-64
2021/12/24 01:18:30;;;;;;;20.90;10.48;;;9.70;95.50;;;;;;4954874;28;20031;-64
2021/12/24 01:26:07;;;;;;;17.00;9.52;;;9.70;95.70;;;;;;4950927;28;20059;-65
2021/12/24 01:44:55;;;;;;;17.20;9.20;;;9.70;95.60;;;;;;4990523;28;20041;-64
2021/12/24 01:47:22;;;;;;;16.95;9.23;;;9.70;95.60;;;;;;4986111;28;20034;-64
2021/12/24 01:49:47;;;;;;;15.30;8.68;;;9.80;95.70;;;;;;4991098;28;20086;-64
2021/12/24 01:52:15;;;;;;;17.05;9.20;;;9.70;95.70;;;;;;4975504;28;20702;-64
2021/12/24 01:54:42;;;;;;;17.48;8.70;;;9.70;95.70;;;;;;4990918;28;20542;-64
2021/12/24 01:57:08;;;;;;;17.55;9.25;;;9.70;95.70;;;;;;4990816;28;20029;-65
2021/12/24 01:59:34;;;;;;;18.70;9.70;;;9.70;95.70;;;;;;4990795;28;20026;-65
2021/12/24 02:01:59;;;;;;;16.27;9.57;;;9.70;95.70;;;;;;4990423;28;20054;-65
2021/12/24 02:04:25;;;;;;;14.70;8.45;;;9.80;95.80;;;;;;4991597;28;20049;-65
2021/12/24 02:06:51;;;;;;;16.60;9.23;;;9.80;95.90;;;;;;4990771;28;20504;-65
2021/12/24 02:09:17;;;;;;;15.05;8.52;;;9.80;95.90;;;;;;4990357;28;20125;-65
2021/12/24 02:11:43;;;;;;;14.35;8.52;;;9.80;96.00;;;;;;4990526;28;20513;-66
2021/12/24 02:14:11;;;;;;;14.68;8.90;;;9.80;96.00;;;;;;4955000;28;20427;-66
2021/12/24 02:17:05;;;;;;;17.05;8.77;;;9.80;96.00;;;;;;4952973;28;20177;-65
2021/12/24 02:30:37;;;;;;;12.88;6.95;;;9.80;95.90;;;;;;4953790;28;20442;-65
2021/12/24 02:33:04;;;;;;;16.92;8.65;;;9.80;95.90;;;;;;4954216;28;20114;-65
2021/12/24 02:35:31;;;;;;;14.52;8.15;;;9.80;96.30;;;;;;4953295;28;20035;-65
2021/12/24 02:37:58;;;;;;;14.43;7.95;;;9.80;96.40;;;;;;4949348;28;20035;-65
2021/12/24 02:40:23;;;;;;;14.18;7.85;;;9.80;96.30;;;;;;4955990;28;20019;-65
2021/12/24 02:42:53;;;;;;;14.10;7.38;;;9.80;96.50;;;;;;4954141;28;20097;-65
2021/12/24 02:45:20;;;;;;;13.13;6.95;;;9.80;96.50;;;;;;4953651;28;20027;-65
2021/12/24 02:56:02;;;;;;;14.63;6.72;;;9.80;96.50;;;;;;4934237;28;20051;-65
2021/12/24 02:58:41;;;;;;;12.18;7.28;;;9.80;96.60;;;;;;4955306;28;20116;-66
2021/12/24 03:01:07;;;;;;;9.18;5.78;;;9.80;96.50;;;;;;4954665;28;20088;-65
2021/12/24 03:03:33;;;;;;;15.60;8.07;;;9.80;96.40;;;;;;4953696;28;20067;-65
2021/12/24 03:05:59;;;;;;;11.75;7.70;;;9.80;96.50;;;;;;4952438;28;20023;-65
2021/12/24 03:08:25;;;;;;;9.80;6.50;;;9.80;96.60;;;;;;4952305;28;20096;-65
2021/12/24 03:10:53;;;;;;;10.38;6.82;;;9.80;96.40;;;;;;4950545;28;20043;-65
2021/12/24 03:13:19;;;;;;;13.20;8.02;;;9.90;96.40;;;;;;4955055;28;20071;-65
2021/12/24 03:15:48;;;;;;;12.55;6.68;;;9.90;97.20;;;;;;4953250;28;20038;-65
2021/12/24 03:18:13;;;;;;;12.52;7.55;;;9.90;96.50;;;;;;4952465;28;20507;-66
2021/12/24 03:20:39;;;;;;;13.07;8.02;;;9.90;96.60;;;;;;4953528;28;20023;-65
2021/12/24 03:23:10;;;;;;;12.32;8.13;;;9.90;96.80;;;;;;4949570;28;20481;-65
2021/12/24 03:25:36;;;;;;;13.32;7.72;;;9.90;96.80;;;;;;4953861;28;20031;-65
2021/12/24 03:28:02;;;;;;;13.95;9.10;;;9.90;96.90;;;;;;4953588;28;20031;-66
2021/12/24 03:30:28;;;;;;;12.48;7.40;;;9.80;96.70;;;;;;4953363;28;20023;-65
2021/12/24 03:32:54;;;;;;;12.75;7.75;;;9.90;96.70;;;;;;4953380;28;20023;-64
2021/12/24 03:35:20;;;;;;;14.68;7.95;;;9.90;96.70;;;;;;4949945;28;20038;-65
2021/12/24 03:37:46;;;;;;;13.85;7.45;;;9.90;96.60;;;;;;4951571;28;20373;-66
2021/12/24 03:40:11;;;;;;;12.10;7.53;;;9.90;96.60;;;;;;4953620;28;20108;-65
2021/12/24 03:42:39;;;;;;;11.48;7.10;;;9.90;96.70;;;;;;4953004;28;20074;-65
2021/12/24 03:45:21;;;;;;;9.25;6.15;;;9.90;96.60;;;;;;4953138;28;20019;-65
2021/12/24 03:47:54;;;;;;;10.07;6.40;;;9.90;96.60;;;;;;4953196;28;20029;-66
2021/12/24 03:50:20;;;;;;;11.27;6.40;;;9.90;96.50;;;;;;4951200;28;20437;-65
2021/12/24 03:55:17;;;;;;;10.50;6.63;;;9.90;96.60;;;;;;4953508;28;20043;-65
2021/12/24 03:57:43;;;;;;;9.45;6.00;;;10.00;96.70;;;;;;4949805;28;20119;-65
2021/12/24 04:00:14;;;;;;;9.95;5.47;;;10.00;96.70;;;;;;4951817;28;20450;-65
2021/12/24 04:02:40;;;;;;;8.88;5.88;;;10.00;96.40;;;;;;4951834;28;20035;-65
2021/12/24 04:05:06;;;;;;;11.23;5.93;;;10.00;96.40;;;;;;4949135;28;20031;-65
2021/12/24 04:07:32;;;;;;;11.43;6.93;;;10.00;96.50;;;;;;4956071;28;20102;-65
2021/12/24 04:12:23;;;;;;;9.07;5.80;;;10.10;96.50;;;;;;4955999;28;20108;-66
2021/12/24 04:14:52;;;;;;;7.95;5.00;;;10.00;96.40;;;;;;4956259;28;20067;-65
2021/12/24 04:17:17;;;;;;;7.68;4.95;;;10.00;96.30;;;;;;4953762;28;20034;-65
2021/12/24 04:25:11;;;;;;;8.82;5.45;;;10.00;96.30;;;;;;4957311;28;20042;-65
2021/12/24 04:27:37;;;;;;;9.40;5.85;;;10.00;96.30;;;;;;4955964;28;20023;-67
2021/12/24 04:30:12;;;;;;;7.28;4.47;;;10.00;96.30;;;;;;4955868;28;20062;-65
2021/12/24 04:33:00;;;;;;;8.75;5.30;;;10.00;96.30;;;;;;4954760;28;20023;-66
2021/12/24 04:51:17;;;;;;;9.07;5.47;;;10.10;96.40;;;;;;4955939;28;20078;-65
2021/12/24 05:04:37;;;;;;;8.55;5.20;;;10.00;96.70;;;;;;4964788;28;20548;-65
2021/12/24 05:07:18;;;;;;;8.73;5.25;;;10.00;96.70;;;;;;4954709;28;20446;-65
2021/12/24 05:09:43;;;;;;;9.82;5.05;;;10.00;96.60;;;;;;4954675;28;20440;-65
2021/12/24 05:12:10;;;;;;;8.25;5.13;;;10.00;96.60;;;;;;4954999;28;20110;-65
2021/12/24 05:14:35;;;;;;;11.00;5.88;;;10.00;96.60;;;;;;4955210;28;20045;-65
2021/12/24 05:22:33;;;;;;;;;;;10.00;96.70;;;;;;4964238;28;20029;-65
2021/12/24 05:24:59;;;;;;;6.80;4.63;;;9.90;96.40;;;;;;4953615;28;19918;-65
2021/12/24 05:27:25;;;;;;;9.82;5.63;;;9.90;96.70;;;;;;4955078;28;20491;-65
2021/12/24 05:29:52;;;;;;;9.77;5.85;;;9.90;97.20;;;;;;4953599;28;20403;-65
2021/12/24 05:32:18;;;;;;;8.52;5.30;;;9.90;96.80;;;;;;4952688;28;20467;-66
2021/12/24 05:34:43;;;;;;;9.63;5.63;;;9.90;96.80;;;;;;4953805;28;20063;-65
2021/12/24 05:37:09;;;;;;;10.07;5.85;;;9.90;96.80;;;;;;4956273;28;20055;-65
2021/12/24 05:39:35;;;;;;;10.18;5.80;;;10.00;96.90;;;;;;4954589;28;20072;-65
2021/12/24 05:42:02;;;;;;;8.27;5.38;;;10.00;97.00;;;;;;4954907;28;20499;-65
2021/12/24 05:44:27;;;;;;;8.60;5.68;;;9.90;97.00;;;;;;4952780;28;20448;-65
2021/12/24 05:46:53;;;;;;;6.65;4.38;;;10.00;97.00;;;;;;4951801;28;20063;-65
2021/12/24 05:49:19;;;;;;;8.27;5.32;;;9.90;96.90;;;;;;4955484;28;20031;-65
2021/12/24 05:51:45;;;;;;;7.30;4.90;;;9.90;96.90;;;;;;4954620;28;20020;-65
2021/12/24 05:54:11;;;;;;;6.30;3.97;;;10.00;97.00;;;;;;4954322;28;20506;-65
2021/12/24 05:56:37;;;;;;;6.95;4.88;;;9.90;96.80;;;;;;4954781;28;20023;-65
2021/12/24 05:59:04;;;;;;;7.85;5.13;;;9.90;97.10;;;;;;4950693;28;20031;-65
2021/12/24 06:01:30;;;;;;;7.88;4.82;;;10.00;96.90;;;;;;4955375;28;20085;-65
2021/12/24 06:03:56;;;;;;;7.40;4.60;;;9.90;96.90;;;;;;4954512;28;20034;-65
2021/12/24 06:06:23;;;;;;;10.75;4.70;;;10.00;97.20;;;;;;4954550;28;20629;-65
2021/12/24 06:08:48;;;;;;;8.20;4.30;;;9.90;97.20;;;;;;4952867;28;20038;-65
2021/12/24 06:11:14;;;;;;;5.47;3.50;;;9.90;97.30;;;;;;4951719;28;20046;-65
2021/12/24 06:13:40;;;;;;;5.00;3.50;;;10.00;97.40;;;;;;4954290;28;20038;-66
2021/12/24 06:16:07;;;;;;;4.43;3.42;;;10.00;97.30;;;;;;4955135;28;20028;-65
2021/12/24 06:18:37;;;;;;;7.57;3.67;;;9.90;97.40;;;;;;4954264;28;20043;-65
2021/12/24 06:21:06;;;;;;;5.22;3.67;;;9.90;97.50;;;;;;4954067;28;20106;-65
2021/12/24 06:23:33;;;;;;;4.90;3.55;;;9.90;97.50;;;;;;4953945;28;20029;-65
2021/12/24 06:25:59;;;;;;;4.90;3.05;;;9.90;97.50;;;;;;4950474;28;20116;-65
2021/12/24 06:28:26;;;;;;;5.20;3.50;;;9.90;97.50;;;;;;4956173;28;20369;-65
2021/12/24 06:30:52;;;;;;;4.78;3.22;;;9.90;97.50;;;;;;4953556;28;20035;-65
2021/12/24 06:33:19;;;;;;;5.68;3.35;;;9.90;97.50;;;;;;4954087;28;20037;-65
2021/12/24 06:35:45;;;;;;;4.93;3.13;;;9.90;97.40;;;;;;4953853;28;20122;-65
2021/12/24 06:38:11;;;;;;;3.75;2.50;;;9.90;97.60;;;;;;4950887;28;20031;-65
2021/12/24 06:40:38;;;;;;;6.43;3.42;;;9.90;97.40;;;;;;4954295;28;20031;-65
2021/12/24 06:43:04;;;;;;;4.22;2.75;;;9.90;97.60;;;;;;4953391;28;20085;-65
2021/12/24 06:45:31;;;;;;;4.15;2.83;;;9.90;97.40;;;;;;4953928;28;20027;-65
2021/12/24 06:47:58;;;;;;;5.28;2.92;;;9.90;97.30;;;;;;4954055;28;20031;-65
2021/12/24 06:50:25;;;;;;;3.60;2.45;;;9.90;97.30;;;;;;4950635;28;20037;-65
2021/12/24 06:52:52;;;;;;;4.00;2.90;;;9.90;97.20;;;;;;4951072;28;20503;-65
2021/12/24 06:55:19;;;;;;;3.92;2.40;;;9.90;97.10;;;;;;4955807;28;20484;-66
2021/12/24 06:57:45;;;;;;;4.10;2.78;;;9.90;97.10;;;;;;4953869;28;20391;-65
2021/12/24 07:00:15;;;;;;;3.55;2.65;;;9.90;96.90;;;;;;4953820;28;20041;-65
2021/12/24 07:02:41;;;;;;;3.63;2.67;;;9.90;97.00;;;;;;4953861;28;20399;-65
2021/12/24 07:05:07;;;;;;;3.50;2.75;;;9.90;97.10;;;;;;4949724;28;20028;-66
2021/12/24 07:07:33;;;;;;;4.68;3.33;;;9.90;97.30;;;;;;4955286;28;20106;-65
2021/12/24 07:09:59;;;;;;;4.30;3.08;;;9.90;97.10;;;;;;4952192;28;20614;-65
2021/12/24 07:12:25;;;;;;;6.47;3.55;;;9.90;97.30;;;;;;4953846;28;20034;-65
2021/12/24 07:14:50;;;;;;;6.03;3.33;;;9.90;97.30;;;;;;4953554;28;20434;-65
2021/12/24 07:17:16;;;;;;;5.60;4.07;;;9.80;97.30;;;;;;4951041;28;20033;-65
2021/12/24 07:19:42;;;;;;;5.60;3.75;;;9.90;97.50;;;;;;4952502;28;20077;-65
2021/12/24 07:22:08;;;;;;;7.85;3.78;;;9.80;97.50;;;;;;4954700;28;20030;-65
2021/12/24 07:24:35;;;;;;;6.25;3.95;;;9.80;97.60;;;;;;4953464;28;20031;-65
2021/12/24 07:27:02;;;;;;;4.78;3.67;;;9.80;97.60;;;;;;4953637;28;20020;-65
2021/12/24 07:29:28;;;;;;;4.95;3.55;;;9.80;97.50;;;;;;4952348;28;20022;-65
2021/12/24 07:31:54;;;;;;;5.35;3.75;;;9.80;97.50;;;;;;4950136;28;20043;-65
2021/12/24 07:34:20;;;;;;;4.65;3.10;;;9.80;97.50;;;;;;4954957;28;20440;-65
2021/12/24 07:36:46;;;;;;;5.72;3.85;;;9.80;97.50;;;;;;4950408;28;20097;-66
2021/12/24 07:39:12;;;;;;;6.47;4.65;;;9.90;97.50;;;;;;4953179;28;20093;-65
2021/12/24 07:41:38;;;;;;;6.15;3.95;;;9.90;97.60;;;;;;4953486;28;20027;-65
2021/12/24 07:44:04;;;;;;;8.25;5.57;;;9.90;97.60;;;;;;4952576;28;20035;-65
2021/12/24 07:46:37;;;;;;;8.85;5.53;;;9.90;97.70;;;;;;4965298;28;20023;-66
2021/12/24 07:49:17;;;;;;;9.33;5.67;;;9.80;97.70;;;;;;4955409;28;20019;-65
2021/12/24 07:52:08;;;;;;;11.50;6.30;;;9.80;97.90;;;;;;4956511;28;20032;-66
2021/12/24 07:54:36;;;;;;;9.20;6.10;;;9.80;98.10;;;;;;4956435;28;20065;-66
2021/12/24 07:57:03;;;;;;;7.45;5.50;;;9.90;98.00;;;;;;4956493;28;20039;-65
2021/12/24 07:59:29;;;;;;;9.80;5.95;;;9.80;98.00;;;;;;4955400;28;20504;-65
2021/12/24 08:01:56;;;;;;;10.52;6.35;;;9.80;98.00;;;;;;4953040;28;20068;-65
2021/12/24 08:04:22;;;;;;;11.13;6.80;;;9.90;98.10;;;;;;4957855;28;20476;-65
2021/12/24 08:06:48;;;;;;;8.68;5.45;;;9.90;98.20;;;;;;4956361;28;20055;-65
2021/12/24 08:09:14;;;;;;;8.85;5.95;;;9.80;98.10;;;;;;4956003;28;20048;-65
2021/12/24 08:11:40;;;;;;;9.00;5.82;;;9.90;98.00;;;;;;4955060;28;20037;-65
2021/12/24 08:14:07;;;;;;;9.82;6.72;;;9.90;98.20;;;;;;4952067;28;20493;-65
2021/12/24 08:16:34;;;;;;;11.23;7.20;;;9.90;98.20;;;;;;4957726;28;20019;-65
2021/12/24 08:19:00;;;;;;;11.20;7.13;;;9.90;98.10;;;;;;4954822;28;20400;-65
2021/12/24 08:21:26;;;;;;;10.27;6.90;;;9.90;98.20;;;;;;4956112;28;20110;-65
2021/12/24 08:23:52;;;;;;;10.43;6.60;;;9.90;98.10;;;;;;4956041;28;20475;-65
2021/12/24 08:26:19;;;;;;;10.50;6.22;;;9.90;98.10;;;;;;4953525;28;20081;-65
2021/12/24 08:28:45;;;;;;;9.85;6.30;;;9.80;98.00;;;;;;4954746;28;20023;-65
2021/12/24 08:31:11;;;;;;;9.60;6.03;;;9.80;98.20;;;;;;4957383;28;20035;-65
2021/12/24 08:33:37;;;;;;;9.50;5.85;;;9.80;98.10;;;;;;4955516;28;20034;-65
2021/12/24 08:36:04;;;;;;;9.23;5.18;;;9.80;98.10;;;;;;4955876;28;20058;-65
2021/12/24 08:38:30;;;;;;;7.65;5.10;;;9.90;97.90;;;;;;4955004;28;20015;-65
2021/12/24 08:40:56;;;;;;;8.90;5.63;;;9.90;97.80;;;;;;4952397;28;20042;-66
2021/12/24 08:43:21;;;;;;;8.82;5.78;;;9.90;98.20;;;;;;4957778;28;20027;-65
2021/12/24 08:45:47;;;;;;;7.65;5.10;;;9.90;98.10;;;;;;4955658;28;20027;-65
2021/12/24 08:48:13;;;;;;;9.35;5.93;;;9.80;98.00;;;;;;4955449;28;20036;-65
2021/12/24 08:50:39;;;;;;;10.40;6.72;;;9.80;97.90;;;;;;4955792;28;20488;-65
2021/12/24 08:53:06;;;;;;;11.20;6.25;;;9.90;98.10;;;;;;4951222;28;20077;-65
2021/12/24 08:55:33;;;;;;;12.30;7.70;;;9.80;97.90;;;;;;4957224;28;20074;-65
2021/12/24 08:57:59;;;;;;;12.23;8.25;;;9.90;98.20;;;;;;4954287;28;20114;-65
2021/12/24 09:00:25;;;;;;;10.75;7.38;;;9.80;98.30;;;;;;4955481;28;20110;-65
2021/12/24 09:02:51;;;;;;;9.40;6.35;;;9.80;98.20;;;;;;4955216;28;20044;-65
2021/12/24 09:05:17;;;;;;;11.20;6.55;;;9.80;98.10;;;;;;4952890;28;20469;-65
2021/12/24 09:07:44;;;;;;;9.15;5.82;;;9.80;98.10;;;;;;4954729;28;20053;-65
2021/12/24 09:10:11;;;;;;;7.57;4.93;;;9.80;97.90;;;;;;4956544;28;20051;-65
2021/12/24 09:12:37;;;;;;;10.55;6.18;;;9.90;97.90;;;;;;4955420;28;20077;-65
2021/12/24 09:15:05;;;;;;;9.85;6.20;;;9.80;97.70;;;;;;4954935;28;20106;-65
2021/12/24 09:17:31;;;;;;;8.75;5.63;;;9.90;97.50;;;;;;4953322;28;20038;-65
2021/12/24 09:19:58;;;;;;;9.63;5.72;;;9.90;97.60;;;;;;4951682;28;20041;-65
2021/12/24 09:22:29;;;;;;;7.82;4.95;;;9.90;97.70;;;;;;4957131;28;20020;-65
2021/12/24 09:24:56;;;;;;;7.47;4.82;;;9.90;97.70;;;;;;4955285;28;20039;-65
2021/12/24 09:27:23;;;;;;;8.38;5.05;;;9.90;97.70;;;;;;4955057;28;20015;-65
2021/12/24 09:29:49;;;;;;;8.38;5.43;;;10.00;97.50;;;;;;4954606;28;20359;-65
2021/12/24 09:32:15;;;;;;;9.18;5.50;;;10.00;97.70;;;;;;4952324;28;20029;-65
2021/12/24 09:34:41;;;;;;;12.05;7.35;;;10.00;97.70;;;;;;4954827;28;20125;-65
2021/12/24 09:37:07;;;;;;;10.20;6.20;;;10.00;97.80;;;;;;4955876;28;20106;-65
2021/12/24 09:39:34;;;;;;;9.55;6.63;;;9.90;97.80;;;;;;4954773;28;20035;-66
2021/12/24 09:42:01;;;;;;;9.07;5.97;;;9.90;97.70;;;;;;4954920;28;20069;-65
2021/12/24 09:44:27;;;;;;;8.18;5.90;;;10.00;97.70;;;;;;4953144;28;20027;-65
2021/12/24 09:46:53;;;;;;;12.68;6.93;;;9.90;97.60;;;;;;4951797;28;20039;-65
2021/12/24 09:49:20;;;;;;;9.93;6.78;;;10.00;97.70;;;;;;4956641;28;20103;-65
2021/12/24 09:51:50;;;;;;;9.02;5.43;;;9.90;97.80;;;;;;4954716;28;20030;-65
2021/12/24 09:54:19;;;;;;;8.43;5.93;;;9.90;97.70;;;;;;4954615;28;20559;-65
2021/12/24 09:56:46;;;;;;;9.10;5.68;;;9.90;97.80;;;;;;4954693;28;20075;-65
2021/12/24 09:59:12;;;;;;;9.40;5.65;;;10.00;97.80;;;;;;4950946;28;20019;-66
2021/12/24 10:01:57;;;;;;;10.55;6.32;;;10.00;97.80;;;;;;4954881;28;20035;-65
2021/12/24 10:04:27;;;;;;;8.82;5.75;;;10.00;97.80;;;;;;4955850;28;20019;-65
2021/12/24 10:07:03;;;;;;;7.25;4.50;;;10.00;97.80;;;;;;4954605;28;20170;-65
2021/12/24 10:09:32;;;;;;;9.50;5.75;;;10.00;97.80;;;;;;4954213;28;20495;-65
2021/12/24 10:12:01;;;;;;;8.73;5.35;;;10.00;97.80;;;;;;4954469;28;20066;-65
2021/12/24 10:14:56;;;;;;;8.52;5.50;;;10.10;97.60;;;;;;4952568;28;20039;-66
2021/12/24 10:17:29;;;;;;;7.75;5.05;;;10.10;97.50;;;;;;4944256;28;20046;-65
2021/12/24 10:19:58;;;;;;;7.57;5.05;;;10.10;97.70;;;;;;4951022;28;20031;-65
2021/12/24 10:22:24;;;;;;;6.85;4.43;;;10.20;97.60;;;;;;4954854;28;20177;-65
2021/12/24 10:24:59;;;;;;;9.23;6.13;;;10.10;97.40;;;;;;4954031;28;20055;-65
2021/12/24 10:27:33;;;;;;;9.05;5.55;;;10.20;97.50;;;;;;4954125;28;20028;-65
2021/12/24 10:30:00;;;;;;;9.27;6.57;;;10.20;97.60;;;;;;4954105;28;20035;-65
2021/12/24 10:32:26;;;;;;;8.90;5.65;;;10.20;97.70;;;;;;4952650;28;20172;-65
2021/12/24 10:34:52;;;;;;;9.73;5.60;;;10.10;97.70;;;;;;4951078;28;20491;-65
2021/12/24 10:37:23;;;;;;;8.35;5.80;;;10.10;97.70;;;;;;4956005;28;20037;-65
2021/12/24 10:39:55;;;;;;;8.80;6.18;;;10.20;97.80;;;;;;4953945;28;20023;-65
2021/12/24 10:42:35;;;;;;;7.80;5.50;;;10.10;97.90;;;;;;4953629;28;20027;-66
2021/12/24 10:45:20;;;;;;;11.45;6.70;;;10.00;97.80;;;;;;4952627;28;20046;-65
2021/12/24 10:47:46;;;;;;;9.82;6.20;;;10.10;97.90;;;;;;4953873;28;20169;-65
2021/12/24 10:53:13;;;;;;;9.23;6.53;;;10.10;98.00;;;;;;4951778;28;20166;-65
2021/12/24 10:55:47;;;;;;;9.18;5.93;;;10.20;98.00;;;;;;4954107;28;20086;-65
2021/12/24 10:58:21;;;;;;;9.75;6.25;;;10.20;97.90;;;;;;4955083;28;20032;-65
2021/12/24 11:00:50;;;;;;;9.15;6.00;;;10.30;98.00;;;;;;4953714;28;20027;-65
2021/12/24 11:03:21;;;;;;;10.82;7.38;;;10.30;98.10;;;;;;4953436;28;20038;-65
2021/12/24 11:05:51;;;;;;;9.13;6.53;;;10.40;98.00;;;;;;4953749;28;20018;-65
2021/12/24 11:08:20;;;;;;;10.48;6.50;;;10.40;97.90;;;;;;4951012;28;20035;-65
2021/12/24 11:10:57;;;;;;;11.18;6.53;;;10.40;97.80;;;;;;4951934;28;20609;-65
2021/12/24 11:13:38;;;;;;;9.70;6.18;;;10.40;97.90;;;;;;4954319;28;20039;-65
2021/12/24 11:16:06;;;;;;;10.13;6.53;;;10.50;97.80;;;;;;4952313;28;20495;-65
2021/12/24 11:18:35;;;;;;;10.18;6.40;;;10.50;97.70;;;;;;4959901;28;20016;-65
2021/12/24 11:21:07;;;;;;;10.45;6.85;;;10.40;97.70;;;;;;4959969;28;20106;-65
2021/12/24 11:23:35;;;;;;;9.35;6.15;;;10.40;97.80;;;;;;4959499;28;20375;-66
2021/12/24 11:26:09;;;;;;;10.98;6.75;;;10.40;97.70;;;;;;4955531;28;20027;-66
2021/12/24 11:28:36;;;;;;;10.13;6.53;;;10.40;97.80;;;;;;4969358;28;20030;-66
2021/12/24 11:31:32;;;;;;;11.85;7.22;;;10.30;97.80;;;;;;4960511;28;20511;-65
2021/12/24 11:33:58;;;;;;;9.80;6.40;;;10.50;97.80;;;;;;4970753;28;20044;-66
2021/12/24 11:36:27;;;;;;;12.50;8.13;;;10.50;97.80;;;;;;4959969;28;20027;-65
2021/12/24 11:38:59;;;;;;;10.07;6.50;;;10.50;97.80;;;;;;4959817;28;20053;-65
2021/12/24 11:41:29;;;;;;;11.85;7.55;;;10.50;97.80;;;;;;4957584;28;20089;-66
2021/12/24 11:43:56;;;;;;;12.02;7.70;;;10.50;98.00;;;;;;4956462;28;20043;-66
2021/12/24 11:46:25;;;;;;;13.88;8.48;;;10.60;97.80;;;;;;4961577;28;20023;-65
2021/12/24 11:48:52;;;;;;;10.88;7.35;;;10.60;97.70;;;;;;4959660;28;20023;-65
2021/12/24 11:51:30;;;;;;;11.80;8.02;;;10.70;97.80;;;;;;4959504;28;20077;-65
2021/12/24 11:54:02;;;;;;;11.07;6.85;;;10.60;97.80;;;;;;4959494;28;20023;-65
2021/12/24 11:56:28;;;;;;;13.15;8.25;;;10.60;97.70;;;;;;4957969;28;20041;-65
2021/12/24 11:58:57;;;;;;;12.30;7.78;;;10.70;97.60;;;;;;4956446;28;20476;-65
2021/12/24 12:01:27;;;;;;;12.13;7.18;;;10.70;97.50;;;;;;4960089;28;20039;-65
2021/12/24 12:03:58;;;;;;;10.75;6.78;;;10.60;97.60;;;;;;4959330;28;20027;-65
2021/12/24 12:06:23;;;;;;;10.70;6.97;;;10.60;97.50;;;;;;4958157;28;20035;-65
2021/12/24 12:08:53;;;;;;;12.63;7.38;;;10.60;97.40;;;;;;4959162;28;20526;-65
2021/12/24 12:11:29;;;;;;;12.40;7.28;;;10.60;97.60;;;;;;4955401;28;20407;-65
2021/12/24 12:14:07;;;;;;;14.85;8.77;;;10.70;97.80;;;;;;4956080;28;20067;-66
2021/12/24 12:16:39;;;;;;;11.43;7.88;;;10.70;97.70;;;;;;4968609;28;20023;-66
2021/12/24 12:19:13;;;;;;;13.02;8.23;;;10.70;97.80;;;;;;4958692;28;20035;-66
2021/12/24 12:21:42;;;;;;;11.95;8.10;;;10.80;97.80;;;;;;4958982;28;20106;-65
2021/12/24 12:26:52;;;;;;;12.63;7.88;;;10.80;97.70;;;;;;4959282;28;20026;-66
2021/12/24 12:29:40;;;;;;;10.63;7.03;;;10.80;97.70;;;;;;4952897;28;20031;-65
2021/12/24 12:32:12;;;;;;;11.63;7.65;;;10.80;97.60;;;;;;4937150;28;20118;-65
2021/12/24 12:34:43;;;;;;;12.80;8.48;;;10.80;97.60;;;;;;4956018;28;20122;-65
2021/12/24 12:37:14;;;;;;;16.27;8.70;;;10.80;97.70;;;;;;4957072;28;20039;-65
2021/12/24 12:39:40;;;;;;;17.48;9.02;;;10.70;97.50;;;;;;4954107;28;20032;-65
2021/12/24 12:42:07;;;;;;;10.63;7.68;;;10.70;97.50;;;;;;4955735;28;20471;-65
2021/12/24 12:44:34;;;;;;;14.13;7.25;;;10.70;97.50;;;;;;4955431;28;20019;-65
2021/12/24 12:47:16;;;;;;;12.68;8.45;;;10.70;97.60;;;;;;4951779;28;20039;-64
2021/12/24 12:49:43;;;;;;;10.48;7.32;;;10.70;97.70;;;;;;4965443;28;20049;-64
2021/12/24 12:52:21;;;;;;;10.80;7.07;;;10.70;97.50;;;;;;4956901;28;20027;-64
2021/12/24 12:54:56;;;;;;;11.05;7.47;;;10.60;97.30;;;;;;4955157;28;20031;-64
2021/12/24 12:57:27;;;;;;;10.27;6.88;;;10.70;97.40;;;;;;4955481;28;20106;-64
2021/12/24 13:00:12;;;;;;;9.68;7.07;;;10.60;97.50;;;;;;4955284;28;20070;-63
2021/12/24 13:02:56;;;;;;;9.45;6.72;;;10.60;97.30;;;;;;4955395;28;20445;-64
2021/12/24 13:05:23;;;;;;;9.95;6.70;;;10.60;97.50;;;;;;4953648;28;20081;-64
2021/12/24 13:07:49;;;;;;;8.70;5.97;;;10.60;97.50;;;;;;4952407;28;20027;-64
2021/12/24 13:10:19;;;;;;;11.15;6.90;;;10.60;97.40;;;;;;4957195;28;20058;-64
2021/12/24 13:12:45;;;;;;;9.55;6.80;;;10.70;97.50;;;;;;4955663;28;20427;-64
2021/12/24 13:15:16;;;;;;;10.32;7.22;;;10.60;97.50;;;;;;4955272;28;20047;-64
2021/12/24 13:17:48;;;;;;;11.13;7.60;;;10.70;97.60;;;;;;4955371;28;20432;-64
2021/12/24 13:20:33;;;;;;;9.90;6.45;;;10.60;97.50;;;;;;4952442;28;20047;-64
2021/12/24 13:23:02;;;;;;;11.80;7.15;;;10.60;97.40;;;;;;4951039;28;20015;-64
2021/12/24 13:25:28;;;;;;;10.63;7.95;;;10.60;97.50;;;;;;4957123;28;20086;-64
2021/12/24 13:27:54;;;;;;;13.85;7.85;;;10.60;97.50;;;;;;4954935;28;20597;-64
2021/12/24 13:30:24;;;;;;;12.63;8.30;;;10.60;97.60;;;;;;4955192;28;20023;-64
2021/12/24 13:33:03;;;;;;;13.05;9.13;;;10.60;97.70;;;;;;4955165;28;20379;-64
2021/12/24 13:35:30;;;;;;;11.27;7.63;;;10.60;97.70;;;;;;4954220;28;20515;-64
2021/12/24 13:37:56;;;;;;;12.82;8.18;;;10.50;97.70;;;;;;4949734;28;20416;-64
2021/12/24 13:40:28;;;;;;;9.68;6.95;;;10.50;97.70;;;;;;4955642;28;20030;-64
2021/12/24 13:42:56;;;;;;;9.50;7.18;;;10.50;97.70;;;;;;4954945;28;20035;-64
2021/12/24 13:45:25;;;;;;;8.05;6.40;;;10.60;97.70;;;;;;4954705;28;20024;-64
2021/12/24 13:47:59;;;;;;;11.35;7.13;;;10.50;97.60;;;;;;4954592;28;20066;-64
2021/12/24 13:56:04;;;;;;;10.40;6.95;;;10.50;97.60;;;;;;4992967;28;20068;-64
2021/12/24 13:58:31;;;;;;;9.52;6.85;;;10.50;97.50;;;;;;5022880;28;20037;-64
2021/12/24 14:01:00;;;;;;;11.25;6.82;;;10.50;97.40;;;;;;5012788;28;20111;-64
2021/12/24 14:03:29;;;;;;;10.00;6.75;;;10.50;97.60;;;;;;5011982;28;20061;-64
2021/12/24 14:05:57;;;;;;;9.95;7.35;;;10.50;97.70;;;;;;5011722;28;20029;-64
2021/12/24 14:08:25;;;;;;;14.18;8.23;;;10.50;97.60;;;;;;5010525;28;20113;-64
2021/12/24 14:11:11;;;;;;;11.70;7.70;;;10.50;97.70;;;;;;5010678;28;20045;-64
2021/12/24 14:13:45;;;;;;;10.68;6.65;;;10.50;97.60;;;;;;5023192;28;20033;-64
2021/12/24 14:19:19;;;;;;;10.40;7.18;;;10.60;97.70;;;;;;5013258;28;20021;-64
2021/12/24 14:21:47;;;;;;;10.23;7.07;;;10.60;97.60;;;;;;5011523;28;20445;-64
2021/12/24 14:24:23;;;;;;;12.05;8.40;;;10.60;97.70;;;;;;5011694;28;20113;-67
2021/12/24 14:26:58;;;;;;;11.23;7.38;;;10.60;97.50;;;;;;5011646;28;20117;-64
2021/12/24 14:29:35;;;;;;;12.15;8.32;;;10.60;97.60;;;;;;5005357;28;20041;-65
2021/12/24 14:32:03;;;;;;;12.77;8.52;;;10.60;97.60;;;;;;4950071;28;20035;-64
2021/12/24 14:34:38;;;;;;;11.02;7.40;;;10.50;97.60;;;;;;4954460;28;20152;-64
2021/12/24 14:37:08;;;;;;;11.13;8.05;;;10.60;97.70;;;;;;4954467;28;20039;-64
2021/12/24 14:39:40;;;;;;;10.38;7.80;;;10.60;97.60;;;;;;4954110;28;20089;-64
2021/12/24 14:42:36;;;;;;;12.43;7.75;;;10.60;97.60;;;;;;4954048;28;20035;-64
2021/12/24 14:45:23;;;;;;;9.93;7.70;;;10.60;97.50;;;;;;4954033;28;20146;-64
2021/12/24 14:48:01;;;;;;;10.50;8.32;;;10.60;97.60;;;;;;4953914;28;20023;-64
2021/12/24 14:50:29;;;;;;;10.52;7.90;;;10.60;97.70;;;;;;4952123;28;20109;-64
2021/12/24 14:53:10;;;;;;;10.15;7.80;;;10.60;97.70;;;;;;4950547;28;20023;-64